Share

Alpine Airstrip, AK

Kuparuk (PAKU) Elev 66 ft | 70.33 °N, 149.60 °W | Change Station

Current weather conditions updated 7 hours ago

Partly Cloudy
Partly Cloudy
-3 °F
Feels Like -19 °F
N
11
Wind Variable Wind from East
Gusts 19 mph
Sunrise 5:29 AM
Sunset 10:39 PM
Moon Waning Gibbous

Today is forecast to be nearly the same temperature as yesterday.

Pressure 30.03 in
Visibility 10.0 miles
Clouds Scattered Clouds 2500 ft
Windchill -19 °F
Dew Point -7 °F
Humidity 90%
Rainfall 0.00 in
Snow Depth Not available.
UV 1 out of 16
Pollen Not available.
Air Quality Not available.
Flu Activity Sporadic
METAR PAKU 200245Z 02008KT 10SM R06/P6000FT SCT025 M13/M15 A3003

More Conditions Fewer Conditions

Pressure 30.03 in
Visibility 10.0 miles
Clouds Scattered Clouds 2500 ft
Windchill -19 °F
Dew Point -7 °F
Humidity 90%
Rainfall 0.00 in
Snow Depth Not available.
UV 1 out of 16
Pollen Not available.
Air Quality Not available.
Flu Activity Sporadic
METAR PAKU 200245Z 02008KT 10SM R06/P6000FT SCT025 M13/M15 A3003

More Conditions Fewer Conditions

10-Day Weather Forecast

Almanac

Astronomy

Apr. 20, 2014 Rise Set
Actual Time 5:29 AM AKDT 10:39 PM AKDT
Civil Twilight 3:50 AM AKDT 12:22 AM AKDT
Nautical Twilight Sun does not rise Sun does not rise
Astronomical Twilight Sun does not rise Sun does not rise
Moon 5:14 AM AKDT 8:15 AM AKDT
Length of Visible Light 20h 31m
Length of Day
17h 09m
Tomorrow will be 10m 18s longer.
Waning Gibbous, 71% of the Moon is Illuminated
Today
Waning Gibbous
Apr 22
Last Quarter
Apr 29
New
May 6
First Quarter
May 14
Full

Today's Extremes

State Highs State Lows

Community

  • Sunny day at the coast-Cape Arago Lighthouse
    Sunny day at the coast-Cape Arago Lighthouse
  • Cherry Blossoms
    Cherry Blossoms
  • White-Crowned Sparrow
    White-Crowned Sparrow
  • New Day
    New Day
  • Happy Easter!
    Happy Easter!

WunderPhotos

Upload Photos

1,703,123 photos uploaded!

WunderBlogs® & News

Nearby

Snow Depth

Station Depth Elevation
Imnaviat Creek 26 in 3050 ft
Atigun Pass 37 in 4800 ft
Coldfoot 22 in 1040 ft
Gobblers Knob 8 in 2030 ft
Fort Yukon 16 in 430 ft

Coastal Water Temperatures

Place Temperature
No Stations Reporting

Earthquake Activity

City Distance Mag. Time & Date
No recent earthquake activity has been reported nearby.
Minimum magnitude displayed is 2.5.

Nearby Weather Stations

There are no personal weather stations in this area.

What do you think?

We're not finished. Please let us know what you like, what you don't like, and what you are still missing.